Time;durP1;ratioP1;P1;durP2;ratioP2;P2;SDS_P1;SDS_P2;PMS_P1;PMS_P2;Temp;Humidity;BMP_temperature;BMP_pressure;BME280_temperature;BME280_humidity;BME280_pressure;Samples;Min_cycle;Max_cycle;Signal;HPM_P1;HPM_P2
2021/12/26 00:02:09;;;;;;;60.58;34.38;;;;;;;-0.80;82.53;93042.59;5098328;28;20027;-49
2021/12/26 00:04:35;;;;;;;66.60;33.13;;;;;;;-0.88;82.29;93039.63;5110475;28;20035;-44
2021/12/26 00:07:01;;;;;;;49.10;31.15;;;;;;;-1.14;82.80;93046.34;5110420;28;20027;-44
2021/12/26 00:09:26;;;;;;;57.53;31.13;;;;;;;-0.92;82.86;93054.63;5092705;28;20517;-44
2021/12/26 00:11:52;;;;;;;49.47;28.27;;;;;;;-0.75;82.74;93050.03;5088458;28;20032;-44
2021/12/26 00:14:19;;;;;;;47.55;28.27;;;;;;;-0.66;82.49;93044.41;5088752;28;20028;-45
2021/12/26 00:16:45;;;;;;;48.53;27.70;;;;;;;-0.58;81.87;93042.69;5088389;28;20115;-44
2021/12/26 00:19:11;;;;;;;51.00;29.98;;;;;;;-0.55;81.07;93047.16;5088838;28;20116;-46
2021/12/26 00:21:36;;;;;;;52.22;29.27;;;;;;;-0.46;80.92;93044.25;5088436;28;20023;-44
2021/12/26 00:24:02;;;;;;;65.57;36.67;;;;;;;-0.39;80.65;93054.59;5089333;28;20035;-44
2021/12/26 00:26:30;;;;;;;86.43;47.90;;;;;;;-0.33;79.95;93051.94;5088977;28;20031;-46
2021/12/26 00:28:56;;;;;;;115.90;66.78;;;;;;;-0.34;79.46;93055.84;5087766;28;20070;-44
2021/12/26 00:31:21;;;;;;;114.28;60.85;;;;;;;-0.44;78.92;93047.22;5089918;28;20047;-45
2021/12/26 00:33:47;;;;;;;102.35;58.03;;;;;;;-0.49;78.96;93061.47;5089555;28;20020;-49
2021/12/26 00:36:12;;;;;;;76.00;43.08;;;;;;;-0.28;78.99;93060.06;5089609;28;20032;-48
2021/12/26 00:38:38;;;;;;;92.68;46.88;;;;;;;-0.43;79.14;93062.22;5089100;28;20054;-51
2021/12/26 00:41:04;;;;;;;96.20;53.78;;;;;;;-0.40;79.59;93061.28;5089629;28;20089;-51
2021/12/26 00:43:29;;;;;;;96.63;54.60;;;;;;;-0.45;79.52;93063.94;5088430;28;20438;-51
2021/12/26 00:45:55;;;;;;;88.53;48.88;;;;;;;-0.28;78.86;93065.50;5088397;28;20111;-47
2021/12/26 00:48:21;;;;;;;92.53;49.60;;;;;;;-0.14;77.84;93061.09;5088794;28;20024;-47
2021/12/26 00:50:46;;;;;;;94.63;49.65;;;;;;;-0.05;77.87;93060.88;5091793;28;20039;-49
2021/12/26 00:53:12;;;;;;;88.30;46.08;;;;;;;-0.33;78.71;93024.81;5108885;28;20030;-51
2021/12/26 00:55:38;;;;;;;76.63;44.53;;;;;;;-0.17;79.31;93060.09;5108678;28;20653;-47
2021/12/26 00:58:05;;;;;;;82.28;46.45;;;;;;;-0.14;79.66;93052.97;5109924;28;20027;-48
2021/12/26 01:00:35;;;;;;;86.25;48.45;;;;;;;-0.18;79.67;93052.47;5110108;28;20027;-48
2021/12/26 01:03:02;;;;;;;90.47;51.67;;;;;;;-0.11;79.76;93050.00;5109314;28;20019;-49
2021/12/26 01:05:28;;;;;;;91.78;52.42;;;;;;;-0.24;78.79;93051.72;5109506;28;20042;-51
2021/12/26 01:08:01;;;;;;;84.38;50.05;;;;;;;-0.64;80.75;93058.22;5109293;28;20118;-50
2021/12/26 01:10:39;;;;;;;85.75;48.50;;;;;;;-0.56;79.89;93056.50;5113765;28;20031;-52
2021/12/26 01:13:23;;;;;;;79.78;45.05;;;;;;;-0.73;80.34;93057.66;5113537;28;20551;-49
2021/12/26 01:15:50;;;;;;;87.10;48.55;;;;;;;-0.40;80.41;93055.84;5113566;28;20028;-49
2021/12/26 01:18:16;;;;;;;79.25;44.85;;;;;;;-0.46;79.70;93044.25;5114370;28;20172;-49
2021/12/26 01:20:56;;;;;;;74.97;42.78;;;;;;;-0.44;79.97;93047.22;5114188;28;20051;-49
2021/12/26 01:23:24;;;;;;;61.67;34.95;;;;;;;-0.38;79.72;93047.97;5113859;28;20024;-51
2021/12/26 01:25:50;;;;;;;61.97;34.55;;;;;;;-0.37;79.54;93049.44;5113897;28;20030;-50
2021/12/26 01:28:18;;;;;;;68.93;38.25;;;;;;;-0.60;79.90;93023.47;5114261;28;20027;-49
2021/12/26 01:30:44;;;;;;;75.57;42.03;;;;;;;-0.30;78.96;93035.41;5113894;28;20111;-49
2021/12/26 01:33:13;;;;;;;80.30;42.35;;;;;;;-0.40;79.40;93036.88;5112293;28;20043;-56
2021/12/26 01:35:39;;;;;;;81.95;42.95;;;;;;;-0.42;79.83;93025.75;5093784;28;20416;-50
2021/12/26 01:38:06;;;;;;;73.60;41.33;;;;;;;-0.32;78.59;93037.13;5117674;27;20070;-51
2021/12/26 01:40:36;;;;;;;81.25;44.80;;;;;;;-0.49;79.18;93018.09;5119418;27;20234;-51
2021/12/26 01:43:03;;;;;;;72.20;41.47;;;;;;;-0.35;78.83;93024.56;5116811;27;20575;-49
2021/12/26 01:45:28;;;;;;;80.57;47.13;;;;;;;-0.27;78.98;93030.97;5122885;27;20027;-50
2021/12/26 01:47:59;;;;;;;97.35;52.88;;;;;;;-0.55;79.40;93027.44;5118527;27;20042;-49
2021/12/26 01:50:25;;;;;;;86.03;50.35;;;;;;;-0.53;80.13;93023.00;5113425;28;20031;-49
2021/12/26 01:52:51;;;;;;;90.25;50.55;;;;;;;-0.58;80.21;93018.31;5113673;28;20051;-48
2021/12/26 01:55:26;;;;;;;88.05;49.88;;;;;;;-0.48;79.82;93019.59;5113030;28;20032;-49
2021/12/26 01:57:54;;;;;;;87.72;47.33;;;;;;;-0.44;80.05;93017.38;5105342;28;20020;-49
2021/12/26 02:00:21;;;;;;;80.47;44.30;;;;;;;-0.47;79.91;93017.59;5093363;28;20024;-48
2021/12/26 02:02:48;;;;;;;72.85;40.80;;;;;;;-0.40;79.53;93015.16;5092994;28;20019;-51
2021/12/26 02:05:13;;;;;;;92.00;51.75;;;;;;;-0.50;79.03;93011.22;5093275;28;20036;-48
2021/12/26 02:07:39;;;;;;;93.53;52.58;;;;;;;-0.51;79.48;93006.25;5102337;28;20566;-51
2021/12/26 02:10:05;;;;;;;90.72;49.33;;;;;;;-0.65;80.68;93007.91;5092526;28;20032;-53
2021/12/26 02:12:31;;;;;;;73.97;44.97;;;;;;;-0.63;82.52;93013.63;5091219;28;20019;-52
2021/12/26 02:14:56;;;;;;;89.72;50.25;;;;;;;-0.64;82.01;93006.69;5091041;28;20398;-54
2021/12/26 02:17:22;;;;;;;81.15;47.55;;;;;;;-0.88;81.83;92990.84;5090681;28;20023;-53
2021/12/26 02:19:50;;;;;;;98.93;49.75;;;;;;;-0.71;82.71;93007.16;5091838;28;20031;-53
2021/12/26 02:22:22;;;;;;;92.82;53.13;;;;;;;-0.71;82.19;93003.72;5090911;28;20024;-51
2021/12/26 02:27:32;;;;;;;82.43;45.77;;;;;;;-0.78;82.93;92988.69;5092118;28;20505;-48
2021/12/26 02:30:06;;;;;;;77.50;44.95;;;;;;;-0.53;82.32;92995.16;5090429;28;20434;-49
2021/12/26 02:32:32;;;;;;;69.60;42.35;;;;;;;-0.56;80.86;92982.59;5089285;28;20020;-49
2021/12/26 02:34:59;;;;;;;85.28;45.65;;;;;;;-0.45;80.38;92998.88;5088213;28;20047;-51
2021/12/26 02:37:25;;;;;;;73.65;41.17;;;;;;;-0.55;80.96;92990.22;5090117;28;20066;-49
2021/12/26 02:39:50;;;;;;;63.15;36.92;;;;;;;-0.52;80.54;92991.22;5091817;28;20031;-49
2021/12/26 02:42:20;;;;;;;66.78;36.35;;;;;;;-0.53;80.80;93001.31;5110488;28;20024;-48
2021/12/26 02:44:46;;;;;;;60.90;35.40;;;;;;;-1.04;81.90;92977.94;5110812;27;20035;-49
2021/12/26 02:47:13;;;;;;;63.75;37.42;;;;;;;-1.00;82.97;93002.13;5111137;28;20020;-48
2021/12/26 02:49:38;;;;;;;57.90;36.28;;;;;;;-0.85;83.03;92989.13;5111701;28;20119;-51
2021/12/26 02:52:04;;;;;;;57.90;32.45;;;;;;;-0.87;82.86;92989.59;5112176;28;20138;-48
2021/12/26 02:54:29;;;;;;;58.90;33.17;;;;;;;-0.88;83.10;92984.69;5112279;28;20024;-47
2021/12/26 02:56:55;;;;;;;65.68;34.65;;;;;;;-0.86;82.92;92980.25;5112613;28;20069;-48
2021/12/26 02:59:21;;;;;;;52.83;32.78;;;;;;;-0.93;83.14;92988.09;5092029;28;20028;-49
2021/12/26 03:01:46;;;;;;;65.32;36.30;;;;;;;-0.96;83.25;92978.25;5092143;28;20500;-47
2021/12/26 03:04:12;;;;;;;63.35;36.35;;;;;;;-0.91;83.22;92982.94;5091778;28;20030;-49
2021/12/26 03:06:55;;;;;;;68.10;35.25;;;;;;;-0.89;82.71;92991.34;5091980;28;20024;-48
2021/12/26 03:09:21;;;;;;;57.10;35.05;;;;;;;-0.79;82.67;92990.63;5091709;28;20027;-49
2021/12/26 03:11:48;;;;;;;66.05;38.38;;;;;;;-0.73;82.08;92982.50;5091444;28;20095;-51
2021/12/26 03:14:14;;;;;;;66.90;37.75;;;;;;;-0.86;82.08;92976.78;5091626;28;20034;-49
2021/12/26 03:16:49;;;;;;;65.45;37.78;;;;;;;-0.93;81.85;92972.59;5091299;28;20028;-49
2021/12/26 03:19:15;;;;;;;63.17;36.17;;;;;;;-0.96;82.96;92975.53;5091452;28;20024;-47
2021/12/26 03:21:40;;;;;;;59.95;35.53;;;;;;;-0.77;83.06;92979.31;5091683;28;20073;-51
2021/12/26 03:24:06;;;;;;;64.55;38.53;;;;;;;-0.68;81.96;92984.50;5091299;28;20642;-47
2021/12/26 03:26:31;;;;;;;69.50;36.70;;;;;;;-0.68;81.48;92989.94;5091724;28;20061;-48
2021/12/26 03:28:57;;;;;;;74.70;41.00;;;;;;;-0.55;81.26;92987.50;5091210;28;20481;-48
2021/12/26 03:31:22;;;;;;;72.50;39.72;;;;;;;-0.57;80.71;92987.25;5090931;28;20043;-49
2021/12/26 03:33:48;;;;;;;65.75;38.50;;;;;;;-0.52;80.26;92989.22;5091298;28;20016;-50
2021/12/26 03:36:13;;;;;;;69.38;38.05;;;;;;;-0.85;80.99;92989.88;5091197;28;20471;-51
2021/12/26 03:38:39;;;;;;;65.10;39.13;;;;;;;-0.65;81.51;92994.38;5095658;28;20072;-47
2021/12/26 03:41:05;;;;;;;68.28;39.25;;;;;;;-0.76;81.49;92981.50;5102535;28;20077;-47
2021/12/26 03:43:30;;;;;;;71.55;41.28;;;;;;;-0.93;81.38;92979.97;5099635;28;20016;-46
2021/12/26 03:45:56;;;;;;;64.18;36.53;;;;;;;-0.72;81.95;92981.31;5101349;28;20020;-49
2021/12/26 03:48:23;;;;;;;59.55;37.25;;;;;;;-0.73;81.95;92985.22;5101242;28;20020;-49
2021/12/26 03:50:48;;;;;;;67.53;38.28;;;;;;;-0.61;82.09;92986.00;5099325;28;20101;-49
2021/12/26 03:53:15;;;;;;;55.78;30.35;;;;;;;-0.38;80.98;92995.69;5101674;28;20024;-48
2021/12/26 03:55:41;;;;;;;52.97;30.85;;;;;;;-0.39;80.47;93000.38;5100666;28;20496;-50
2021/12/26 03:58:07;;;;;;;45.40;28.25;;;;;;;-0.28;80.56;92994.97;5101354;28;20024;-48
2021/12/26 04:00:32;;;;;;;43.55;25.52;;;;;;;-0.21;80.50;93004.59;5090747;28;20020;-48
2021/12/26 04:02:58;;;;;;;43.28;25.75;;;;;;;-0.53;81.59;93003.28;5090971;28;20024;-48
2021/12/26 04:05:24;;;;;;;47.53;26.65;;;;;;;-0.39;81.76;92996.94;5090680;28;20027;-50
2021/12/26 04:07:50;;;;;;;39.20;23.65;;;;;;;-0.60;81.67;93003.75;5104219;28;20030;-49
2021/12/26 04:10:16;;;;;;;34.10;20.02;;;;;;;-0.85;82.48;92975.59;5111160;28;20110;-51
2021/12/26 04:12:46;;;;;;;35.17;20.83;;;;;;;-0.57;82.40;92981.09;5104622;28;20540;-49
2021/12/26 04:15:15;;;;;;;41.78;23.45;;;;;;;-0.36;82.19;93004.81;5090458;28;20024;-48
2021/12/26 04:17:41;;;;;;;46.97;27.98;;;;;;;-0.27;81.58;92979.44;5090509;28;20036;-50
2021/12/26 04:20:07;;;;;;;51.60;29.60;;;;;;;-0.13;80.84;92994.78;5072745;28;20049;-49
2021/12/26 04:22:33;;;;;;;53.20;30.23;;;;;;;-0.08;80.50;93004.88;5090744;28;20020;-47
2021/12/26 04:24:59;;;;;;;65.35;36.53;;;;;;;-0.03;80.50;92999.47;5090448;28;20034;-49
2021/12/26 04:27:25;;;;;;;66.93;37.35;;;;;;;0.06;79.73;93003.19;5090376;28;20035;-49
2021/12/26 04:29:52;;;;;;;66.25;36.63;;;;;;;-0.23;79.91;93002.38;5090271;28;20035;-48
2021/12/26 04:32:17;;;;;;;61.05;33.88;;;;;;;-0.13;80.81;93011.06;5090221;28;20607;-50
2021/12/26 04:34:43;;;;;;;45.53;27.90;;;;;;;-0.10;80.54;93008.09;5090542;28;20028;-49
2021/12/26 04:37:09;;;;;;;42.25;24.95;;;;;;;-0.05;80.51;93012.78;5090172;28;20444;-49
2021/12/26 04:39:34;;;;;;;56.40;32.42;;;;;;;-0.29;81.19;93003.59;5090452;28;20036;-49
2021/12/26 04:42:00;;;;;;;58.45;32.47;;;;;;;-0.27;81.25;93001.13;5090259;28;20095;-49
2021/12/26 04:44:27;;;;;;;67.68;38.17;;;;;;;-0.50;82.38;92994.94;5093868;28;20034;-49
2021/12/26 04:46:52;;;;;;;64.15;37.15;;;;;;;-0.74;82.94;92993.84;5094390;28;20103;-48
2021/12/26 04:49:18;;;;;;;57.17;33.67;;;;;;;-0.83;83.06;93013.78;5094313;28;20162;-50
2021/12/26 04:51:43;;;;;;;60.22;35.38;;;;;;;-0.81;83.61;93008.59;5105419;28;20108;-49
2021/12/26 04:54:09;;;;;;;62.28;34.92;;;;;;;-0.79;83.00;93014.28;5081611;28;20086;-48
2021/12/26 04:56:35;;;;;;;58.33;35.35;;;;;;;-0.56;82.65;93017.84;5092537;28;20421;-47
2021/12/26 04:59:01;;;;;;;46.90;28.73;;;;;;;-0.47;82.44;93018.34;5094090;28;20115;-49
2021/12/26 05:01:26;;;;;;;50.10;28.98;;;;;;;-0.46;81.51;92998.16;5094004;28;20052;-47
2021/12/26 05:03:52;;;;;;;48.20;30.13;;;;;;;-0.39;81.84;93026.75;5078363;28;20023;-47
2021/12/26 05:06:18;;;;;;;60.25;34.78;;;;;;;-0.37;81.84;93027.00;5096211;28;20035;-51
2021/12/26 05:08:43;;;;;;;75.90;42.30;;;;;;;-0.38;81.78;93030.94;5110484;28;20032;-48
2021/12/26 05:11:09;;;;;;;69.03;39.38;;;;;;;-0.56;82.19;93031.41;5093872;28;20455;-53
2021/12/26 05:13:34;;;;;;;57.92;32.47;;;;;;;-0.84;83.65;93031.25;5093552;28;20034;-51
2021/12/26 05:16:00;;;;;;;58.85;34.08;;;;;;;-0.76;84.30;93026.88;5094042;28;20028;-49
2021/12/26 05:18:25;;;;;;;49.58;29.15;;;;;;;-0.60;84.17;93030.84;5094161;28;20035;-49
2021/12/26 05:20:51;;;;;;;54.83;32.10;;;;;;;-0.47;83.55;93023.78;5094125;28;20023;-49
2021/12/26 05:23:16;;;;;;;53.45;31.48;;;;;;;-0.35;82.60;93019.88;5093718;28;20046;-49
2021/12/26 05:25:42;;;;;;;54.95;31.52;;;;;;;-0.33;82.21;93030.97;5093665;28;20081;-49
2021/12/26 05:28:08;;;;;;;55.47;32.10;;;;;;;-0.30;82.25;93029.22;5093908;28;20057;-48
2021/12/26 05:30:33;;;;;;;53.58;32.00;;;;;;;-0.14;81.44;93037.44;5093626;28;20549;-49
2021/12/26 05:32:59;;;;;;;58.70;32.60;;;;;;;-0.07;81.00;93036.22;5108507;28;20035;-48
2021/12/26 05:35:26;;;;;;;57.17;33.83;;;;;;;-0.24;79.80;92997.47;5093823;28;20032;-48
2021/12/26 05:37:51;;;;;;;94.43;36.65;;;;;;;-0.14;80.70;93023.88;5093431;28;20031;-50
2021/12/26 05:40:17;;;;;;;57.90;33.72;;;;;;;-0.33;81.63;93020.13;5093741;28;20020;-49
2021/12/26 05:42:43;;;;;;;61.80;36.00;;;;;;;-0.20;81.99;93028.53;5093338;28;20489;-49
2021/12/26 05:45:10;;;;;;;59.97;34.13;;;;;;;-0.25;81.95;93029.25;5093724;28;20020;-51
2021/12/26 05:47:36;;;;;;;59.35;33.13;;;;;;;-0.25;82.37;93040.13;5093630;28;20027;-49
2021/12/26 05:50:03;;;;;;;52.17;30.95;;;;;;;-0.06;81.48;93045.81;5092871;28;20086;-49
2021/12/26 05:52:29;;;;;;;69.55;41.10;;;;;;;0.04;80.27;93021.94;5092871;28;20048;-48
2021/12/26 05:54:55;;;;;;;60.72;36.28;;;;;;;0.09;80.20;93040.91;5092591;28;20051;-49
2021/12/26 05:57:21;;;;;;;63.92;37.72;;;;;;;-0.21;81.29;93021.63;5092001;28;20028;-49
2021/12/26 05:59:46;;;;;;;65.88;38.08;;;;;;;-0.02;81.94;93044.34;5091405;28;20034;-49
2021/12/26 06:02:12;;;;;;;55.75;34.85;;;;;;;-0.19;82.48;93038.16;5091298;28;20493;-51
2021/12/26 06:04:39;;;;;;;58.28;36.25;;;;;;;-0.05;82.79;93047.31;5091820;28;20039;-52
2021/12/26 06:07:05;;;;;;;63.85;37.58;;;;;;;0.02;82.86;93040.66;5092690;28;20077;-50
2021/12/26 06:09:31;;;;;;;60.58;35.53;;;;;;;0.16;82.75;93053.25;5092037;28;20028;-50
2021/12/26 06:11:56;;;;;;;57.35;34.95;;;;;;;0.23;82.10;93050.06;5091460;28;20028;-50
2021/12/26 06:14:22;;;;;;;61.67;36.17;;;;;;;0.09;81.63;93042.91;5092187;28;20119;-49
2021/12/26 06:16:47;;;;;;;66.55;34.28;;;;;;;0.37;nan;93066.13;5092564;28;20024;-48
2021/12/26 06:19:13;;;;;;;63.55;35.80;;;;;;;0.34;80.88;93063.66;5090866;28;20032;-51
2021/12/26 06:21:38;;;;;;;57.58;33.72;;;;;;;0.41;80.89;93065.91;5090885;28;20035;-49
2021/12/26 06:24:04;;;;;;;59.45;38.40;;;;;;;0.53;80.35;93061.94;5090587;28;20039;-51
2021/12/26 06:26:31;;;;;;;67.13;38.30;;;;;;;0.54;80.23;93063.44;5092329;28;20055;-50
2021/12/26 06:28:56;;;;;;;68.43;39.72;;;;;;;0.62;79.68;93064.41;5092226;28;20039;-48
2021/12/26 06:31:22;;;;;;;63.28;38.13;;;;;;;0.63;80.02;93074.03;5089232;28;20024;-47
2021/12/26 06:33:48;;;;;;;68.68;39.80;;;;;;;0.73;79.57;93057.03;5092411;28;20169;-49
2021/12/26 06:36:14;;;;;;;66.05;40.80;;;;;;;0.78;79.49;93050.81;5092515;28;20062;-47
2021/12/26 06:38:40;;;;;;;109.57;57.10;;;;;;;0.81;80.02;93064.66;5092103;28;20027;-51
2021/12/26 06:41:07;;;;;;;337.70;157.40;;;;;;;0.75;80.67;93059.22;5091796;28;20057;-48
2021/12/26 06:43:34;;;;;;;411.83;196.00;;;;;;;0.72;80.69;93052.81;5091846;28;20016;-46
2021/12/26 06:46:00;;;;;;;230.60;120.30;;;;;;;0.76;80.67;93055.25;5092167;28;20059;-49
2021/12/26 06:48:26;;;;;;;140.35;84.15;;;;;;;0.82;80.95;93053.31;5073907;28;20417;-48
2021/12/26 06:50:52;;;;;;;96.53;58.95;;;;;;;0.83;80.89;93049.34;5095979;28;20052;-47
2021/12/26 06:53:18;;;;;;;62.33;38.63;;;;;;;0.94;81.70;93054.75;5112355;28;20031;-45
2021/12/26 06:55:45;;;;;;;101.28;59.45;;;;;;;0.66;82.04;93007.88;5112663;28;20038;-48
2021/12/26 06:58:11;;;;;;;74.53;44.75;;;;;;;1.20;81.81;93046.31;5101920;28;20086;-47
2021/12/26 07:00:37;;;;;;;77.45;45.72;;;;;;;1.25;81.96;93042.84;5091824;28;20038;-47
2021/12/26 07:03:04;;;;;;;134.20;75.50;;;;;;;1.17;82.43;93034.44;5091733;28;20106;-50
2021/12/26 07:05:30;;;;;;;191.55;100.03;;;;;;;1.39;82.07;93047.25;5091238;28;20028;-50
2021/12/26 07:07:55;;;;;;;190.25;103.70;;;;;;;1.27;81.71;93038.41;5091650;28;20097;-52
2021/12/26 07:10:21;;;;;;;191.52;103.47;;;;;;;1.08;83.10;93040.19;5091653;28;20032;-48
2021/12/26 07:12:47;;;;;;;173.38;90.97;;;;;;;1.14;83.79;93040.91;5091476;28;20024;-50
2021/12/26 07:15:13;;;;;;;150.38;83.10;;;;;;;1.26;83.38;93038.88;5091519;28;20038;-48
2021/12/26 07:17:40;;;;;;;116.78;67.70;;;;;;;1.24;83.09;93042.09;5091498;28;20489;-50
2021/12/26 07:20:06;;;;;;;146.77;85.97;;;;;;;1.00;85.13;93039.19;5091746;28;20040;-50
2021/12/26 07:22:32;;;;;;;127.38;70.72;;;;;;;1.07;85.41;93040.66;5095726;28;20023;-51
2021/12/26 07:24:57;;;;;;;123.90;72.65;;;;;;;1.21;85.41;93045.81;5100701;28;20412;-50
2021/12/26 07:27:23;;;;;;;135.70;71.63;;;;;;;1.35;85.18;93039.34;5103050;28;20034;-52
2021/12/26 07:29:50;;;;;;;99.05;59.55;;;;;;;1.08;84.74;93001.38;5102260;28;20106;-50
2021/12/26 07:32:16;;;;;;;89.13;53.42;;;;;;;1.49;84.11;93045.75;5100783;28;20396;-50
2021/12/26 07:34:41;;;;;;;83.53;53.22;;;;;;;1.46;83.91;93049.44;5101328;28;20024;-49
2021/12/26 07:37:07;;;;;;;59.08;35.03;;;;;;;1.62;83.86;93045.19;5100859;28;20035;-49
2021/12/26 07:39:33;;;;;;;59.20;35.92;;;;;;;1.73;82.76;93037.00;5097828;28;20107;-49
2021/12/26 07:41:59;;;;;;;51.92;32.00;;;;;;;1.67;81.86;93015.22;5099192;28;20115;-57
2021/12/26 07:44:24;;;;;;;54.63;35.10;;;;;;;1.88;81.71;93043.59;5101212;28;20042;-54
2021/12/26 07:46:50;;;;;;;62.00;37.80;;;;;;;1.86;81.28;93018.13;5103867;28;20031;-50
2021/12/26 07:49:20;;;;;;;63.08;38.38;;;;;;;2.11;80.71;93033.31;5095128;28;20028;-51
2021/12/26 07:51:47;;;;;;;46.40;29.00;;;;;;;2.06;81.67;93034.06;5096966;28;20078;-48
2021/12/26 07:54:14;;;;;;;50.00;28.35;;;;;;;2.01;81.38;93041.06;5098862;28;20023;-49
2021/12/26 07:56:40;;;;;;;60.28;35.83;;;;;;;1.86;81.94;93029.00;5101077;28;20436;-50
2021/12/26 07:59:06;;;;;;;51.55;32.47;;;;;;;1.80;82.56;93041.91;5077094;28;20147;-52
2021/12/26 08:01:31;;;;;;;61.65;37.55;;;;;;;1.80;83.58;93033.75;5105508;28;20027;-50
2021/12/26 08:04:00;;;;;;;79.45;45.30;;;;;;;1.57;84.18;93016.03;5104690;28;20023;-55
2021/12/26 08:06:29;;;;;;;92.68;51.13;;;;;;;1.86;83.73;93043.38;5101934;28;20051;-55
2021/12/26 08:08:55;;;;;;;86.13;51.88;;;;;;;1.88;83.21;93038.16;5106337;28;20540;-50
2021/12/26 08:11:20;;;;;;;92.10;54.03;;;;;;;1.79;82.67;93049.34;5106553;28;20023;-49
2021/12/26 08:13:46;;;;;;;84.78;48.55;;;;;;;1.93;83.51;93050.97;5100019;28;20047;-47
2021/12/26 08:16:11;;;;;;;93.20;53.05;;;;;;;1.83;84.20;93054.50;5098729;28;20572;-47
2021/12/26 08:18:37;;;;;;;73.53;44.42;;;;;;;2.00;83.95;93057.88;5097311;28;20034;-49
2021/12/26 08:21:02;;;;;;;72.90;43.83;;;;;;;2.10;82.84;93045.47;5093361;28;20089;-49
2021/12/26 08:23:28;;;;;;;79.20;46.83;;;;;;;2.22;82.62;93038.69;5106361;28;20031;-49
2021/12/26 08:25:55;;;;;;;83.47;48.30;;;;;;;2.19;82.28;93043.16;5108124;28;20114;-48
2021/12/26 08:28:21;;;;;;;75.18;48.97;;;;;;;2.27;82.86;93037.94;5108597;28;20034;-48
2021/12/26 08:30:47;;;;;;;75.75;48.75;;;;;;;2.36;82.03;93028.72;5108624;28;20103;-50
2021/12/26 08:33:13;;;;;;;66.20;42.95;;;;;;;2.50;82.10;93039.25;5106298;28;20032;-49
2021/12/26 08:35:41;;;;;;;68.20;46.63;;;;;;;2.61;81.00;93033.72;5088392;28;20039;-46
2021/12/26 08:38:07;;;;;;;107.90;64.57;;;;;;;2.72;80.43;93030.91;5086768;28;20137;-51
2021/12/26 08:40:33;;;;;;;101.25;65.35;;;;;;;2.53;80.24;93012.97;5087090;28;20115;-50
2021/12/26 08:42:58;;;;;;;98.55;62.70;;;;;;;2.85;80.34;93033.03;5087101;28;20054;-51
2021/12/26 08:45:25;;;;;;;91.55;57.67;;;;;;;3.00;79.40;93025.94;5086775;28;20059;-53
2021/12/26 08:47:52;;;;;;;88.28;57.50;;;;;;;3.15;79.21;93041.91;5087087;28;20063;-50
2021/12/26 08:50:18;;;;;;;104.47;67.15;;;;;;;3.34;79.02;93029.06;5087630;28;20064;-50
2021/12/26 08:52:43;;;;;;;86.28;52.47;;;;;;;3.26;78.05;92991.97;5096463;28;20052;-57
2021/12/26 08:55:10;;;;;;;76.57;48.22;;;;;;;3.71;77.88;93042.81;5098858;28;20039;-52
2021/12/26 08:57:35;;;;;;;70.63;47.45;;;;;;;3.70;76.85;93024.22;5094563;28;20039;-49
2021/12/26 09:00:03;;;;;;;61.78;41.78;;;;;;;3.81;77.22;93029.56;5085974;28;20122;-49
2021/12/26 09:02:29;;;;;;;63.90;40.55;;;;;;;3.93;76.42;93039.06;5087224;28;20024;-51
2021/12/26 09:04:54;;;;;;;57.00;39.50;;;;;;;4.01;76.11;93029.03;5087158;28;20042;-49
2021/12/26 09:07:20;;;;;;;49.60;36.60;;;;;;;3.99;76.28;93017.88;5085344;28;20107;-56
2021/12/26 09:09:46;;;;;;;56.58;38.58;;;;;;;4.18;75.57;93020.63;5087413;28;20032;-56
2021/12/26 09:12:12;;;;;;;53.90;38.97;;;;;;;4.24;75.61;93016.56;5086074;28;20489;-56
2021/12/26 09:14:38;;;;;;;56.97;39.90;;;;;;;4.22;74.98;93019.03;5087827;28;20024;-58
2021/12/26 09:17:05;;;;;;;55.65;35.92;;;;;;;4.26;75.06;93013.31;5087460;28;20536;-56
2021/12/26 09:19:32;;;;;;;56.30;37.42;;;;;;;3.94;75.83;93010.53;5087421;28;20036;-58
2021/12/26 09:22:03;;;;;;;71.18;47.13;;;;;;;3.69;77.17;93009.09;5087569;28;20043;-57
2021/12/26 09:24:29;;;;;;;75.45;46.80;;;;;;;3.60;78.19;93004.72;5087345;28;20059;-58
2021/12/26 09:26:55;;;;;;;65.95;44.83;;;;;;;3.35;79.47;93008.00;5087814;28;20028;-58
2021/12/26 09:29:21;;;;;;;96.63;62.63;;;;;;;3.45;79.57;93003.66;5088983;28;20421;-58
2021/12/26 09:31:49;;;;;;;72.88;48.53;;;;;;;3.40;80.70;93002.47;5091446;28;20447;-58
2021/12/26 09:34:16;;;;;;;68.68;49.05;;;;;;;3.47;81.22;92993.72;5091193;28;20408;-57
2021/12/26 09:36:42;;;;;;;62.13;41.00;;;;;;;3.76;80.52;93001.06;5090869;28;20038;-57
2021/12/26 09:39:08;;;;;;;68.93;45.28;;;;;;;4.02;79.09;92995.00;5091049;28;20107;-58
2021/12/26 09:41:34;;;;;;;65.40;41.58;;;;;;;4.19;78.82;93009.16;5090129;28;20035;-58
2021/12/26 09:43:59;;;;;;;42.58;29.67;;;;;;;3.88;78.05;92957.94;5090695;28;20028;-57
2021/12/26 09:46:30;;;;;;;38.33;26.95;;;;;;;4.03;78.33;92982.09;5090635;28;20055;-57
2021/12/26 09:48:55;;;;;;;33.55;23.40;;;;;;;4.27;78.03;92996.38;5090900;28;20032;-50
2021/12/26 09:51:21;;;;;;;29.02;18.58;;;;;;;4.45;77.21;93000.34;5099114;28;20426;-57
2021/12/26 09:53:47;;;;;;;19.40;14.55;;;;;;;4.51;76.16;92990.81;5111505;28;20024;-59
2021/12/26 09:56:14;;;;;;;22.38;15.10;;;;;;;4.71;75.68;92994.97;5110969;28;20496;-56
2021/12/26 09:59:07;;;;;;;27.35;16.58;;;;;;;4.93;75.63;92999.34;5110757;28;20133;-52
2021/12/26 10:01:39;;;;;;;26.50;17.15;;;;;;;4.99;74.33;92994.50;5107217;28;20509;-51
2021/12/26 10:04:25;;;;;;;30.13;18.30;;;;;;;4.92;74.60;92995.09;5110191;28;20504;-53
2021/12/26 10:06:53;;;;;;;26.95;19.42;;;;;;;4.45;76.58;92992.91;5108886;28;20032;-50
2021/12/26 10:09:20;;;;;;;33.10;20.20;;;;;;;4.74;75.84;92990.47;5109189;27;20135;-50
2021/12/26 10:11:51;;;;;;;49.63;32.85;;;;;;;4.66;76.03;92978.66;5121950;27;20023;-52
2021/12/26 10:14:22;;;;;;;64.30;43.00;;;;;;;4.41;78.52;92973.31;5112583;27;20036;-50
2021/12/26 10:16:54;;;;;;;62.60;39.70;;;;;;;4.83;77.67;92984.59;5118004;27;20024;-50
2021/12/26 10:19:20;;;;;;;57.08;37.70;;;;;;;5.04;77.00;92980.00;5113231;27;20031;-54
2021/12/26 10:21:46;;;;;;;75.47;46.33;;;;;;;5.21;76.25;92983.91;5109946;28;20019;-53
2021/12/26 10:24:27;;;;;;;58.45;38.67;;;;;;;5.40;74.97;92983.81;5114355;27;20030;-52
2021/12/26 10:26:59;;;;;;;57.80;37.63;;;;;;;5.55;74.32;92989.50;5119401;27;20039;-52
2021/12/26 10:29:33;;;;;;;60.95;41.30;;;;;;;5.72;73.77;92989.91;5118991;27;20031;-49
2021/12/26 10:32:14;;;;;;;49.97;36.05;;;;;;;5.88;73.26;92994.34;5116372;27;20534;-58
2021/12/26 10:34:46;;;;;;;52.40;34.88;;;;;;;5.75;73.05;92988.84;5113122;27;20393;-58
2021/12/26 10:37:13;;;;;;;58.83;38.75;;;;;;;5.58;74.29;93002.13;5112092;27;20515;-58
2021/12/26 10:39:44;;;;;;;39.17;25.83;;;;;;;5.71;74.26;93007.59;5106615;27;20027;-58
2021/12/26 10:42:16;;;;;;;58.95;40.25;;;;;;;5.88;73.17;93001.81;5108508;28;20023;-58
2021/12/26 10:44:58;;;;;;;55.67;37.03;;;;;;;5.93;72.43;93001.69;5091148;28;20100;-58
2021/12/26 10:47:26;;;;;;;58.67;38.83;;;;;;;5.60;72.90;92979.69;5114679;27;20031;-58
2021/12/26 10:50:00;;;;;;;55.03;38.17;;;;;;;5.83;72.98;93002.63;5120014;27;20035;-49
2021/12/26 10:52:31;;;;;;;38.67;29.42;;;;;;;5.95;72.28;93012.88;5101598;27;20048;-55
2021/12/26 10:55:04;;;;;;;33.90;27.08;;;;;;;6.08;71.67;93003.91;5108203;28;20043;-50
2021/12/26 10:57:34;;;;;;;28.05;19.05;;;;;;;6.23;70.71;93000.59;5103844;28;20032;-51
2021/12/26 11:00:06;;;;;;;27.73;22.38;;;;;;;6.42;70.48;93009.38;5087393;28;20066;-50
2021/12/26 11:02:34;;;;;;;38.25;28.63;;;;;;;6.32;70.10;93003.63;5088136;28;20028;-49
2021/12/26 11:05:24;;;;;;;55.00;38.65;;;;;;;6.16;71.26;93001.22;5086282;28;20573;-53
2021/12/26 11:08:04;;;;;;;42.65;31.48;;;;;;;6.49;70.20;93004.00;5074971;28;20688;-55
2021/12/26 11:10:41;;;;;;;52.10;38.28;;;;;;;6.56;69.81;92995.06;5091723;28;20031;-50
2021/12/26 11:13:21;;;;;;;43.38;31.42;;;;;;;6.63;69.40;92983.44;5100620;28;20042;-58
2021/12/26 11:15:48;;;;;;;42.53;34.25;;;;;;;6.87;69.18;92985.88;5104361;28;20041;-54
2021/12/26 11:18:16;;;;;;;44.47;31.58;;;;;;;6.79;69.38;92979.59;5108087;28;20035;-51
2021/12/26 11:20:44;;;;;;;52.55;38.38;;;;;;;6.88;69.36;92979.13;5108531;28;20023;-54
2021/12/26 11:23:16;;;;;;;53.42;37.28;;;;;;;7.28;68.66;92974.09;5108551;28;20498;-56